createdAt,value
2022-10-18T00:01:43.306Z,100.00
2022-10-18T00:04:12.143Z,100.00
2022-10-18T00:06:43.578Z,100.00
2022-10-18T00:09:12.818Z,100.00
2022-10-18T00:11:43.712Z,100.00
2022-10-18T00:14:13.168Z,100.00
2022-10-18T00:16:42.124Z,100.00
2022-10-18T00:19:10.728Z,100.00
2022-10-18T00:21:39.378Z,100.00
2022-10-18T00:24:12.287Z,100.00
2022-10-18T00:26:43.176Z,100.00
2022-10-18T00:29:15.426Z,100.00
2022-10-18T00:31:46.099Z,100.00
2022-10-18T00:34:16.385Z,100.00
2022-10-18T00:36:45.559Z,100.00
2022-10-18T00:39:19.389Z,100.00
2022-10-18T00:41:51.678Z,100.00
2022-10-18T00:44:57.231Z,100.00
2022-10-18T00:47:26.178Z,100.00
2022-10-18T00:50:02.624Z,100.00
2022-10-18T00:52:38.109Z,100.00
2022-10-18T00:55:08.906Z,100.00
2022-10-18T00:57:43.508Z,100.00
2022-10-18T01:00:13.901Z,100.00
2022-10-18T01:02:44.871Z,100.00
2022-10-18T01:05:15.447Z,100.00
2022-10-18T01:08:07.159Z,100.00
2022-10-18T01:10:46.093Z,100.00
2022-10-18T01:13:26.932Z,100.00
2022-10-18T01:16:02.603Z,100.00
2022-10-18T01:18:42.318Z,100.00
2022-10-18T01:21:19.098Z,100.00
2022-10-18T01:24:08.192Z,100.00
2022-10-18T01:26:55.507Z,100.00
2022-10-18T01:29:33.934Z,100.00
2022-10-18T01:32:08.204Z,100.00
2022-10-18T01:34:44.556Z,100.00
2022-10-18T01:37:18.041Z,100.00
2022-10-18T01:39:49.031Z,100.00
2022-10-18T01:42:22.043Z,100.00
2022-10-18T01:44:53.396Z,100.00
2022-10-18T01:47:24.820Z,100.00
2022-10-18T01:50:00.073Z,100.00
2022-10-18T01:52:29.219Z,100.00
2022-10-18T01:55:03.568Z,100.00
2022-10-18T01:57:38.854Z,100.00
2022-10-18T02:00:15.856Z,100.00
2022-10-18T02:02:51.228Z,100.00
2022-10-18T02:05:29.098Z,100.00
2022-10-18T02:08:12.593Z,100.00
2022-10-18T02:10:50.958Z,100.00
2022-10-18T02:13:22.283Z,100.00
2022-10-18T02:15:55.792Z,100.00
2022-10-18T02:18:34.978Z,100.00
2022-10-18T02:21:06.670Z,100.00
2022-10-18T02:23:37.159Z,100.00
2022-10-18T02:26:08.496Z,100.00
2022-10-18T02:28:37.246Z,100.00
2022-10-18T02:31:13.675Z,100.00
2022-10-18T02:33:52.918Z,100.00
2022-10-18T02:36:28.158Z,100.00
2022-10-18T02:39:01.678Z,100.00
2022-10-18T02:41:32.182Z,100.00
2022-10-18T02:44:03.211Z,100.00
2022-10-18T02:46:31.930Z,100.00
2022-10-18T02:49:02.258Z,100.00
2022-10-18T02:51:30.896Z,100.00
2022-10-18T02:54:01.822Z,100.00
2022-10-18T02:56:33.544Z,100.00
2022-10-18T02:59:07.349Z,100.00
2022-10-18T03:01:37.039Z,100.00
2022-10-18T03:04:07.282Z,100.00
2022-10-18T03:06:38.487Z,100.00
2022-10-18T03:09:09.525Z,100.00
2022-10-18T03:11:38.431Z,100.00
2022-10-18T03:14:07.066Z,100.00
2022-10-18T03:16:35.907Z,100.00
2022-10-18T03:19:04.683Z,100.00
2022-10-18T03:21:34.806Z,100.00
2022-10-18T03:24:06.379Z,100.00
2022-10-18T03:26:35.335Z,100.00
2022-10-18T03:29:04.170Z,100.00
2022-10-18T03:31:33.828Z,100.00
2022-10-18T03:34:02.574Z,100.00
2022-10-18T03:36:35.576Z,100.00
2022-10-18T03:39:04.320Z,100.00
2022-10-18T03:41:35.547Z,100.00
2022-10-18T03:44:04.397Z,100.00
2022-10-18T03:46:33.311Z,100.00
2022-10-18T03:49:02.890Z,100.00
2022-10-18T03:51:37.684Z,100.00
2022-10-18T03:54:06.439Z,100.00
2022-10-18T03:56:38.067Z,100.00
2022-10-18T03:59:06.761Z,100.00
2022-10-18T04:01:35.483Z,100.00
2022-10-18T04:04:06.665Z,100.00
2022-10-18T04:06:35.428Z,100.00
2022-10-18T04:09:09.363Z,100.00
2022-10-18T04:11:39.003Z,100.00
2022-10-18T04:14:10.402Z,100.00
2022-10-18T04:16:39.102Z,100.00
2022-10-18T04:19:07.967Z,100.00
2022-10-18T04:21:37.289Z,100.00
2022-10-18T04:24:07.820Z,100.00
2022-10-18T04:26:36.556Z,100.00
2022-10-18T04:29:05.736Z,100.00
2022-10-18T04:31:34.722Z,100.00
2022-10-18T04:34:04.509Z,100.00
2022-10-18T04:36:33.481Z,100.00
2022-10-18T04:39:02.059Z,100.00
2022-10-18T04:41:34.375Z,100.00
2022-10-18T04:44:05.610Z,100.00
2022-10-18T04:46:34.451Z,100.00
2022-10-18T04:49:06.273Z,100.00
2022-10-18T04:51:34.949Z,100.00
2022-10-18T04:54:06.770Z,100.00
2022-10-18T04:56:36.845Z,100.00
2022-10-18T04:59:05.541Z,100.00
2022-10-18T05:01:34.818Z,100.00
2022-10-18T05:04:03.475Z,100.00
2022-10-18T05:06:32.131Z,100.00
2022-10-18T05:09:01.493Z,100.00
2022-10-18T05:11:30.180Z,100.00
2022-10-18T05:14:02.929Z,100.00
2022-10-18T05:16:32.507Z,100.00
2022-10-18T05:19:01.686Z,100.00
2022-10-18T05:21:30.645Z,100.00
2022-10-18T05:23:59.753Z,100.00
2022-10-18T05:26:28.610Z,100.00
2022-10-18T05:28:57.288Z,100.00
2022-10-18T05:31:27.486Z,100.00
2022-10-18T05:33:56.185Z,100.00
2022-10-18T05:36:26.109Z,100.00
2022-10-18T05:38:56.290Z,100.00
2022-10-18T05:41:28.621Z,100.00
2022-10-18T05:43:57.226Z,100.00
2022-10-18T05:46:30.014Z,100.00
2022-10-18T05:48:58.713Z,100.00
2022-10-18T05:51:27.299Z,100.00
2022-10-18T05:53:56.033Z,100.00
2022-10-18T05:56:27.583Z,100.00
2022-10-18T05:58:56.745Z,100.00
2022-10-18T06:01:25.359Z,100.00
2022-10-18T06:03:55.840Z,100.00
2022-10-18T06:06:24.398Z,100.00
2022-10-18T06:08:55.480Z,100.00
2022-10-18T06:11:24.512Z,100.00
2022-10-18T06:13:55.592Z,100.00
2022-10-18T06:16:32.196Z,100.00
2022-10-18T06:19:02.796Z,100.00
2022-10-18T06:21:32.128Z,100.00
2022-10-18T06:24:01.003Z,100.00
2022-10-18T06:26:29.649Z,100.00
2022-10-18T06:28:58.362Z,100.00
2022-10-18T06:31:27.114Z,100.00
2022-10-18T06:33:58.366Z,100.00
2022-10-18T06:36:28.764Z,100.00
2022-10-18T06:38:57.809Z,100.00
2022-10-18T06:41:26.511Z,100.00
2022-10-18T06:43:57.539Z,100.00
2022-10-18T06:46:27.907Z,100.00
2022-10-18T06:48:57.703Z,100.00
2022-10-18T06:51:26.494Z,100.00
2022-10-18T06:54:16.822Z,100.00
2022-10-18T06:56:45.312Z,100.00
2022-10-18T06:59:14.037Z,100.00
2022-10-18T07:01:45.169Z,100.00
2022-10-18T07:04:13.971Z,100.00
2022-10-18T07:06:42.714Z,100.00
2022-10-18T07:09:12.797Z,100.00
2022-10-18T07:11:41.503Z,100.00
2022-10-18T07:14:12.618Z,100.00
2022-10-18T07:16:46.542Z,100.00
2022-10-18T07:19:16.353Z,100.00
2022-10-18T07:21:45.030Z,100.00
2022-10-18T07:24:17.555Z,100.00
2022-10-18T07:26:47.529Z,100.00
2022-10-18T07:29:18.748Z,100.00
2022-10-18T07:31:47.437Z,100.00
2022-10-18T07:34:16.391Z,100.00
2022-10-18T07:36:45.054Z,100.00
2022-10-18T07:39:14.191Z,100.00
2022-10-18T07:41:44.465Z,100.00
2022-10-18T07:44:13.136Z,100.00
2022-10-18T07:46:42.085Z,100.00
2022-10-18T07:49:10.747Z,100.00
2022-10-18T07:51:39.797Z,100.00
2022-10-18T07:54:08.698Z,100.00
2022-10-18T07:56:37.481Z,100.00
2022-10-18T07:59:11.252Z,100.00
2022-10-18T08:01:40.310Z,100.00
2022-10-18T08:04:13.972Z,100.00
2022-10-18T08:06:45.173Z,100.00
2022-10-18T08:09:13.862Z,100.00
2022-10-18T08:11:46.053Z,100.00
2022-10-18T08:14:16.379Z,100.00
2022-10-18T08:16:45.514Z,100.00
2022-10-18T08:19:17.284Z,100.00
2022-10-18T08:21:46.288Z,100.00
2022-10-18T08:24:15.034Z,100.00
2022-10-18T08:26:43.884Z,100.00
2022-10-18T08:29:26.873Z,100.00
2022-10-18T08:31:57.860Z,100.00
2022-10-18T08:34:27.481Z,100.00
2022-10-18T08:36:58.622Z,100.00
2022-10-18T08:39:28.047Z,100.00
2022-10-18T08:42:18.154Z,100.00
2022-10-18T08:44:50.805Z,100.00
2022-10-18T08:47:22.387Z,100.00
2022-10-18T08:49:55.796Z,100.00
2022-10-18T08:52:34.295Z,100.00
2022-10-18T08:55:05.175Z,100.00
2022-10-18T08:57:34.687Z,100.00
2022-10-18T09:00:15.672Z,100.00
2022-10-18T09:03:06.326Z,100.00
2022-10-18T09:05:49.374Z,100.00
2022-10-18T09:08:41.839Z,100.00
2022-10-18T09:11:28.034Z,100.00
2022-10-18T09:14:31.087Z,100.00
2022-10-18T09:17:15.790Z,100.00
2022-10-18T09:19:55.846Z,100.00
2022-10-18T09:22:44.599Z,100.00
2022-10-18T09:25:19.434Z,100.00
2022-10-18T09:27:54.760Z,100.00
2022-10-18T09:30:45.212Z,100.00
2022-10-18T09:33:34.841Z,100.00
2022-10-18T09:36:06.963Z,99.40
2022-10-18T09:38:42.098Z,97.90
2022-10-18T09:41:17.495Z,96.01
2022-10-18T09:43:55.755Z,94.52
2022-10-18T09:46:28.821Z,93.21
2022-10-18T09:49:00.540Z,90.28
2022-10-18T09:51:35.128Z,88.66
2022-10-18T09:54:27.827Z,81.66
2022-10-18T09:57:03.640Z,78.17
2022-10-18T09:59:43.446Z,75.78
2022-10-18T10:02:15.930Z,76.17
2022-10-18T10:04:46.274Z,73.01
2022-10-18T10:07:22.852Z,74.16
2022-10-18T10:09:58.902Z,73.70
2022-10-18T10:12:31.436Z,76.56
2022-10-18T10:15:20.029Z,73.18
2022-10-18T10:17:57.473Z,71.64
2022-10-18T10:20:34.303Z,69.04
2022-10-18T10:23:15.128Z,66.80
2022-10-18T10:25:44.135Z,66.22
2022-10-18T10:28:16.850Z,67.08
2022-10-18T10:30:47.706Z,68.26
2022-10-18T10:33:40.113Z,67.65
2022-10-18T10:36:19.910Z,66.70
2022-10-18T10:39:05.114Z,65.68
2022-10-18T10:41:35.285Z,68.16
2022-10-18T10:44:06.270Z,68.18
2022-10-18T10:46:36.710Z,68.60
2022-10-18T10:52:27.752Z,65.17
2022-10-18T10:57:57.417Z,65.19
2022-10-18T11:00:41.946Z,63.51
2022-10-18T11:03:28.366Z,61.59
2022-10-18T11:06:00.893Z,61.66
2022-10-18T11:08:37.466Z,60.25
2022-10-18T11:11:16.944Z,60.31
2022-10-18T11:14:07.402Z,62.58
2022-10-18T11:16:53.793Z,60.77
2022-10-18T11:19:39.283Z,62.01
2022-10-18T11:22:16.579Z,61.28
2022-10-18T11:24:46.976Z,60.07
2022-10-18T11:27:21.426Z,61.36
2022-10-18T11:30:04.839Z,59.45
2022-10-18T11:32:43.913Z,59.59
2022-10-18T11:35:27.903Z,58.23
2022-10-18T11:38:13.690Z,56.95
2022-10-18T11:40:56.526Z,56.99
2022-10-18T11:43:50.558Z,55.96
2022-10-18T11:46:33.048Z,55.80
2022-10-18T11:49:14.941Z,58.11
2022-10-18T11:52:07.830Z,58.04
2022-10-18T11:54:55.191Z,56.63
2022-10-18T11:57:44.361Z,56.65
2022-10-18T12:03:18.608Z,58.27
2022-10-18T12:05:49.473Z,58.47
2022-10-18T12:08:22.553Z,54.99
2022-10-18T12:11:05.171Z,56.62
2022-10-18T12:13:42.176Z,54.61
2022-10-18T12:16:12.670Z,55.83
2022-10-18T12:18:50.270Z,55.78
2022-10-18T12:21:25.412Z,56.69
2022-10-18T12:23:57.515Z,55.46
2022-10-18T12:26:28.270Z,54.51
2022-10-18T12:29:12.032Z,55.07
2022-10-18T12:31:46.387Z,55.51
2022-10-18T12:34:38.635Z,55.00
2022-10-18T12:37:24.740Z,54.62
2022-10-18T12:40:09.742Z,54.28
2022-10-18T12:42:45.658Z,56.67
2022-10-18T12:45:35.424Z,54.85
2022-10-18T12:48:07.836Z,55.07
2022-10-18T12:50:38.982Z,55.31
2022-10-18T12:53:19.997Z,55.14
2022-10-18T12:55:53.654Z,54.17
2022-10-18T12:58:29.554Z,52.76
2022-10-18T13:01:04.906Z,52.52
2022-10-18T13:04:00.494Z,54.73
2022-10-18T13:07:12.484Z,52.46
2022-10-18T13:10:23.076Z,52.37
2022-10-18T13:13:29.647Z,53.92
2022-10-18T13:16:04.649Z,55.17
2022-10-18T13:18:48.364Z,51.68
2022-10-18T13:21:24.991Z,51.76
2022-10-18T13:24:16.119Z,53.78
2022-10-18T13:27:18.145Z,54.91
2022-10-18T13:30:13.155Z,54.86
2022-10-18T13:32:53.872Z,55.68
2022-10-18T13:35:51.836Z,54.12
2022-10-18T13:38:39.145Z,52.62
2022-10-18T13:41:11.844Z,53.07
2022-10-18T13:44:00.701Z,54.98
2022-10-18T13:47:03.081Z,57.31
2022-10-18T13:49:45.424Z,57.12
2022-10-18T13:52:22.147Z,57.58
2022-10-18T13:55:03.942Z,56.51
2022-10-18T13:57:46.659Z,56.87
2022-10-18T14:00:36.910Z,56.75
2022-10-18T14:03:55.605Z,57.10
2022-10-18T14:06:22.551Z,56.63
2022-10-18T14:08:58.884Z,58.54
2022-10-18T14:11:33.747Z,58.62
2022-10-18T14:14:09.649Z,57.97
2022-10-18T14:16:43.733Z,55.53
2022-10-18T14:19:18.779Z,56.29
2022-10-18T14:21:55.955Z,56.63
2022-10-18T14:24:27.642Z,57.74
2022-10-18T14:27:18.072Z,58.04
2022-10-18T14:29:49.286Z,58.62
2022-10-18T14:32:27.789Z,59.14
2022-10-18T14:35:27.373Z,58.38
2022-10-18T14:37:48.815Z,56.24
2022-10-18T14:40:29.769Z,56.78
2022-10-18T14:43:03.682Z,55.49
2022-10-18T14:45:32.346Z,56.22
2022-10-18T14:48:17.245Z,57.13
2022-10-18T14:50:59.199Z,57.67
2022-10-18T14:53:36.450Z,57.04
2022-10-18T14:56:08.521Z,57.86
2022-10-18T14:58:38.627Z,58.67
2022-10-18T15:01:07.500Z,60.58
2022-10-18T15:03:37.211Z,61.71
2022-10-18T15:06:08.562Z,62.51
2022-10-18T15:08:42.579Z,62.67
2022-10-18T15:11:14.806Z,62.48
2022-10-18T15:13:49.442Z,63.13
2022-10-18T15:16:19.619Z,63.47
2022-10-18T15:19:01.460Z,64.50
2022-10-18T15:21:30.247Z,65.67
2022-10-18T15:24:29.028Z,66.22
2022-10-18T15:27:01.875Z,67.12
2022-10-18T15:29:36.223Z,68.28
2022-10-18T15:32:15.850Z,68.18
2022-10-18T15:34:44.613Z,68.58
2022-10-18T15:37:29.328Z,68.48
2022-10-18T15:40:40.108Z,67.53
2022-10-18T15:43:37.928Z,67.84
2022-10-18T15:46:07.538Z,68.12
2022-10-18T15:48:39.954Z,68.24
2022-10-18T15:51:13.676Z,68.58
2022-10-18T15:53:51.539Z,68.42
2022-10-18T15:56:35.617Z,68.60
2022-10-18T15:59:23.793Z,68.94
2022-10-18T16:01:52.876Z,68.24
2022-10-18T16:04:25.596Z,68.76
2022-10-18T16:06:55.553Z,68.93
2022-10-18T16:09:26.326Z,69.32
2022-10-18T16:11:58.293Z,69.35
2022-10-18T16:14:30.133Z,69.59
2022-10-18T16:17:01.419Z,70.14
2022-10-18T16:19:33.413Z,70.59
2022-10-18T16:22:06.377Z,70.92
2022-10-18T16:24:36.308Z,71.37
2022-10-18T16:27:06.951Z,71.31
2022-10-18T16:29:35.619Z,71.76
2022-10-18T16:32:04.850Z,71.67
2022-10-18T16:34:33.926Z,72.04
2022-10-18T16:37:02.971Z,72.85
2022-10-18T16:39:34.919Z,73.17
2022-10-18T16:42:03.672Z,73.15
2022-10-18T16:44:33.817Z,73.44
2022-10-18T16:47:02.599Z,73.81
2022-10-18T16:49:31.358Z,73.81
2022-10-18T16:52:00.503Z,74.83
2022-10-18T16:54:29.188Z,75.27
2022-10-18T16:56:58.349Z,75.52
2022-10-18T16:59:28.910Z,76.17
2022-10-18T17:02:01.625Z,76.80
2022-10-18T17:04:32.511Z,76.76
2022-10-18T17:07:01.232Z,76.89
2022-10-18T17:09:29.892Z,76.93
2022-10-18T17:11:58.573Z,78.50
2022-10-18T17:14:27.455Z,78.68
2022-10-18T17:16:57.548Z,78.43
2022-10-18T17:19:28.126Z,78.35
2022-10-18T17:22:00.224Z,78.55
2022-10-18T17:24:31.248Z,79.10
2022-10-18T17:26:59.919Z,79.09
2022-10-18T17:29:29.104Z,78.96
2022-10-18T17:31:57.886Z,79.26
2022-10-18T17:34:27.910Z,79.53
2022-10-18T17:36:56.986Z,79.62
2022-10-18T17:39:26.049Z,79.83
2022-10-18T17:41:55.482Z,79.94
2022-10-18T17:44:25.564Z,80.02
2022-10-18T17:46:54.323Z,80.26
2022-10-18T17:49:25.243Z,80.49
2022-10-18T17:51:57.441Z,80.84
2022-10-18T17:54:26.314Z,80.89
2022-10-18T17:56:54.940Z,80.59
2022-10-18T17:59:24.063Z,80.60
2022-10-18T18:01:53.816Z,80.42
2022-10-18T18:04:25.893Z,80.65
2022-10-18T18:06:54.587Z,80.94
2022-10-18T18:09:24.638Z,81.31
2022-10-18T18:11:53.809Z,81.38
2022-10-18T18:14:22.540Z,81.75
2022-10-18T18:16:51.941Z,82.34
2022-10-18T18:19:23.996Z,82.54
2022-10-18T18:21:55.103Z,82.67
2022-10-18T18:24:25.610Z,83.22
2022-10-18T18:26:56.308Z,83.35
2022-10-18T18:29:26.756Z,83.58
2022-10-18T18:31:56.012Z,83.80
2022-10-18T18:34:24.902Z,84.00
2022-10-18T18:36:54.210Z,84.13
2022-10-18T18:39:29.525Z,84.15
2022-10-18T18:41:58.126Z,84.04
2022-10-18T18:44:26.843Z,84.07
2022-10-18T18:46:55.635Z,84.06
2022-10-18T18:49:28.210Z,84.15
2022-10-18T18:51:56.826Z,84.16
2022-10-18T18:54:28.739Z,83.99
2022-10-18T18:56:57.939Z,83.68
2022-10-18T18:59:27.503Z,83.96
2022-10-18T19:01:56.207Z,84.16
2022-10-18T19:04:24.859Z,84.09
2022-10-18T19:06:53.474Z,84.34
2022-10-18T19:09:22.827Z,84.76
2022-10-18T19:11:54.859Z,84.63
2022-10-18T19:14:25.827Z,84.71
2022-10-18T19:16:57.538Z,84.94
2022-10-18T19:19:27.643Z,85.43
2022-10-18T19:21:59.763Z,85.57
2022-10-18T19:24:31.065Z,85.22
2022-10-18T19:27:03.043Z,85.19
2022-10-18T19:29:35.595Z,84.92
2022-10-18T19:32:12.035Z,84.32
2022-10-18T19:34:41.741Z,84.07
2022-10-18T19:37:12.924Z,83.61
2022-10-18T19:39:43.715Z,83.88
2022-10-18T19:42:20.516Z,83.87
2022-10-18T19:44:53.721Z,83.43
2022-10-18T19:47:24.790Z,83.32
2022-10-18T19:49:53.867Z,83.72
2022-10-18T19:52:22.521Z,83.85
2022-10-18T19:54:51.089Z,83.81
2022-10-18T19:57:23.579Z,83.78
2022-10-18T19:59:52.248Z,83.99
2022-10-18T20:02:20.763Z,83.96
2022-10-18T20:04:50.049Z,84.30
2022-10-18T20:07:18.662Z,85.01
2022-10-18T20:09:47.971Z,84.97
2022-10-18T20:12:16.590Z,84.94
2022-10-18T20:14:46.630Z,84.70
2022-10-18T20:17:15.731Z,84.51
2022-10-18T20:19:44.617Z,84.31
2022-10-18T20:22:13.263Z,83.96
2022-10-18T20:24:44.898Z,83.69
2022-10-18T20:27:14.098Z,83.73
2022-10-18T20:29:46.266Z,84.17
2022-10-18T20:32:16.069Z,84.61
2022-10-18T20:34:46.900Z,85.74
2022-10-18T20:37:15.780Z,86.87
2022-10-18T20:39:44.403Z,87.66
2022-10-18T20:42:13.041Z,87.55
2022-10-18T20:44:43.657Z,87.38
2022-10-18T20:47:15.772Z,87.79
2022-10-18T20:49:44.451Z,88.45
2022-10-18T20:52:13.409Z,88.98
2022-10-18T20:54:42.370Z,89.73
2022-10-18T20:57:10.963Z,90.00
2022-10-18T20:59:40.240Z,90.50
2022-10-18T21:02:13.084Z,90.36
2022-10-18T21:04:43.109Z,90.42
2022-10-18T21:07:14.114Z,90.50
2022-10-18T21:09:43.413Z,90.45
2022-10-18T21:12:14.762Z,90.49
2022-10-18T21:14:43.560Z,90.67
2022-10-18T21:17:12.214Z,90.80
2022-10-18T21:19:40.803Z,90.62
2022-10-18T21:22:13.096Z,90.66
2022-10-18T21:24:45.174Z,90.96
2022-10-18T21:27:13.800Z,90.77
2022-10-18T21:29:42.423Z,91.17
2022-10-18T21:32:11.552Z,91.38
2022-10-18T21:34:40.204Z,91.14
2022-10-18T21:37:09.273Z,91.14
2022-10-18T21:39:39.614Z,90.36
2022-10-18T21:42:08.708Z,90.44
2022-10-18T21:44:37.977Z,90.82
2022-10-18T21:47:06.712Z,90.85
2022-10-18T21:49:36.087Z,90.79
2022-10-18T21:52:05.427Z,90.55
2022-10-18T21:54:34.358Z,91.10
2022-10-18T21:57:06.961Z,91.02
2022-10-18T21:59:38.297Z,91.17
2022-10-18T22:02:07.183Z,90.74
2022-10-18T22:04:37.897Z,90.75
2022-10-18T22:07:06.484Z,90.65
2022-10-18T22:09:35.169Z,90.87
2022-10-18T22:12:04.917Z,90.84
2022-10-18T22:14:35.803Z,90.64
2022-10-18T22:17:04.762Z,90.74
2022-10-18T22:19:33.554Z,90.76
2022-10-18T22:22:02.303Z,90.49
2022-10-18T22:24:30.932Z,90.25
2022-10-18T22:26:59.480Z,90.45
2022-10-18T22:29:30.684Z,90.17
2022-10-18T22:32:01.788Z,90.03
2022-10-18T22:34:30.738Z,90.04
2022-10-18T22:36:59.656Z,89.88
2022-10-18T22:39:28.823Z,89.94
2022-10-18T22:41:59.656Z,89.81
2022-10-18T22:44:29.675Z,89.91
2022-10-18T22:46:58.483Z,89.85
2022-10-18T22:49:31.186Z,89.78
2022-10-18T22:52:00.247Z,89.37
2022-10-18T22:54:31.703Z,89.61
2022-10-18T22:57:00.811Z,89.71
2022-10-18T22:59:29.414Z,89.66
2022-10-18T23:01:58.337Z,89.60
2022-10-18T23:04:29.413Z,89.37
2022-10-18T23:07:01.896Z,89.31
2022-10-18T23:09:31.115Z,89.63
2022-10-18T23:12:00.737Z,90.05
2022-10-18T23:14:29.334Z,89.84
2022-10-18T23:17:00.452Z,90.02
2022-10-18T23:19:29.049Z,89.82
2022-10-18T23:21:57.721Z,89.99
2022-10-18T23:24:27.993Z,89.83
2022-10-18T23:26:59.107Z,89.33
2022-10-18T23:29:30.581Z,89.44
2022-10-18T23:31:59.228Z,89.24
2022-10-18T23:34:28.041Z,89.06
2022-10-18T23:36:56.680Z,88.93
2022-10-18T23:39:25.386Z,88.87
2022-10-18T23:41:55.806Z,89.07
2022-10-18T23:44:24.437Z,89.24
2022-10-18T23:46:53.342Z,89.74
2022-10-18T23:49:22.021Z,89.56
2022-10-18T23:51:53.095Z,89.66
2022-10-18T23:54:22.223Z,89.81
2022-10-18T23:56:53.409Z,90.17
2022-10-18T23:59:23.449Z,89.84
